首页
METAR-TAF:

METAR-TAF

机场 :

Scampton, 英格兰

纬度: 53-18-27N, 经度: 000-33-03W, 海拔: 62米

当前天气观测

该预报发布于45分钟前的02:50 UTC
风速13节,风向西南
温度 15°C
湿度 77%
气压 1020 hPa
能见度10公里或以上

METAR: EGXP 220250Z AUTO 22013KT 9999 // BKN060/// BKN120/// 15/11 Q1020

时间: 04:35 (03:35 UTC)


TAF: 丢失

超过4000个机场的气象观测和天气预报(METAR&TAF报告)。

可查询的气象台以黄色和红色小点在地图上表示。

将鼠标移到小点上方,可查看气象台名称。

然后点击查看天气观测和预报。

如需切换地图:点击带黑十字的绿色按钮放大地图;点击带横线的绿色按钮缩小地图;或者点击绿色箭头查看邻近地区的地图。


METAR-TAF: